Metar-ilmailun säätiedot     EFOU Oulu Airport
Lämpötila
20°C Lämpötila
19°C Kastepiste
94% Kosteus



Tuuli
3 M/S
7 MPH
11 KM/H
6 KTS



200°
E-LO
Nykyiset olosuhteet

Area Kuuroja Area Kuuroja
Paine 1012.92 (hPa) - 29.91 (inHg)
Näkyvyys 6.2 (maili) - 10 (km)
Lentokenttä
Lentokentän koodi EFOU

Sijainti: Oulu Airport
Etäisyys:: 83 (km)

Metar:
EFOU 030220Z AUTO 20006KT 160V230 9999 VCSH SCT021 //////CB 20/19 Q1013

Aika: 03-07-2022 05:20 EEST